createdAt,value
2022-11-20T00:02:38.721Z,53.35
2022-11-20T00:05:40.775Z,54.85
2022-11-20T00:08:43.289Z,48.22
2022-11-20T00:11:45.358Z,52.78
2022-11-20T00:14:47.288Z,56.78
2022-11-20T00:17:49.347Z,51.17
2022-11-20T00:20:51.531Z,48.83
2022-11-20T00:23:55.563Z,44.13
2022-11-20T00:26:57.524Z,53.72
2022-11-20T00:29:59.667Z,54.33
2022-11-20T00:33:01.662Z,50.35
2022-11-20T00:36:09.264Z,49.72
2022-11-20T00:39:11.230Z,45.70
2022-11-20T00:42:13.322Z,48.80
2022-11-20T00:45:15.379Z,48.00
2022-11-20T00:48:17.497Z,50.97
2022-11-20T00:51:22.256Z,42.97
2022-11-20T00:54:24.726Z,43.38
2022-11-20T01:00:28.580Z,39.45
2022-11-20T01:03:33.417Z,38.78
2022-11-20T01:06:37.880Z,39.50
2022-11-20T01:09:39.941Z,37.17
2022-11-20T01:12:41.954Z,36.20
2022-11-20T01:15:44.035Z,44.17
2022-11-20T01:18:48.283Z,50.03
2022-11-20T01:21:53.878Z,47.03
2022-11-20T01:24:55.903Z,36.42
2022-11-20T01:27:57.982Z,35.40
2022-11-20T01:31:00.519Z,31.27
2022-11-20T01:37:07.867Z,34.60
2022-11-20T01:43:22.089Z,31.08
2022-11-20T01:46:24.301Z,30.20
2022-11-20T01:49:34.761Z,34.30
2022-11-20T01:52:43.772Z,33.70
2022-11-20T01:55:51.989Z,27.20
2022-11-20T01:58:59.316Z,35.60
2022-11-20T02:02:01.330Z,31.23
2022-11-20T02:05:31.210Z,35.30
2022-11-20T02:08:34.219Z,34.03
2022-11-20T02:11:36.239Z,25.73
2022-11-20T02:14:38.239Z,35.00
2022-11-20T02:17:40.365Z,28.95
2022-11-20T02:20:45.806Z,24.33
2022-11-20T02:24:16.077Z,27.02
2022-11-20T02:27:18.967Z,27.35
2022-11-20T02:30:21.099Z,28.30
2022-11-20T02:33:23.113Z,29.65
2022-11-20T02:36:27.677Z,31.05
2022-11-20T02:39:30.271Z,30.48
2022-11-20T02:42:32.323Z,31.30
2022-11-20T02:45:34.590Z,31.65
2022-11-20T02:48:36.808Z,35.25
2022-11-20T02:51:38.921Z,35.80
2022-11-20T02:54:40.922Z,30.02
2022-11-20T02:57:42.964Z,29.20
2022-11-20T03:00:45.049Z,30.17
2022-11-20T03:03:49.492Z,29.63
2022-11-20T03:06:51.504Z,33.13
2022-11-20T03:09:53.534Z,33.08
2022-11-20T03:12:56.639Z,28.95
2022-11-20T03:15:58.735Z,29.02
2022-11-20T03:19:01.264Z,30.00
2022-11-20T03:22:04.061Z,30.33
2022-11-20T03:25:06.381Z,31.90
2022-11-20T03:28:08.405Z,31.75
2022-11-20T03:31:13.949Z,26.00
2022-11-20T03:34:16.013Z,30.33
2022-11-20T03:37:17.971Z,33.15
2022-11-20T03:40:20.291Z,29.83
2022-11-20T03:43:22.527Z,33.28
2022-11-20T03:46:25.097Z,29.77
2022-11-20T03:52:28.912Z,33.88
2022-11-20T03:55:30.898Z,35.38
2022-11-20T03:58:35.544Z,37.03
2022-11-20T04:01:38.695Z,33.55
2022-11-20T04:04:40.729Z,36.83
2022-11-20T04:07:42.836Z,27.02
2022-11-20T04:10:44.908Z,34.42
2022-11-20T04:13:49.540Z,34.92
2022-11-20T04:16:51.544Z,40.83
2022-11-20T04:19:53.595Z,39.50
2022-11-20T04:22:55.832Z,35.88
2022-11-20T04:26:12.219Z,30.50
2022-11-20T04:29:14.348Z,35.90
2022-11-20T04:32:16.284Z,38.20
2022-11-20T04:35:18.237Z,39.45
2022-11-20T04:38:20.669Z,55.05
2022-11-20T04:41:24.702Z,46.95
2022-11-20T04:44:26.677Z,44.78
2022-11-20T04:47:28.782Z,39.25
2022-11-20T04:50:30.890Z,33.75
2022-11-20T04:53:33.529Z,37.42
2022-11-20T04:56:35.613Z,38.00
2022-11-20T04:59:37.745Z,40.58
2022-11-20T05:02:40.082Z,42.58
2022-11-20T05:05:42.114Z,40.10
2022-11-20T05:08:44.335Z,41.45
2022-11-20T05:11:50.412Z,41.22
2022-11-20T05:14:53.743Z,41.85
2022-11-20T05:17:55.879Z,40.55
2022-11-20T05:20:59.212Z,46.92
2022-11-20T05:24:01.182Z,42.50
2022-11-20T05:27:03.271Z,37.85
2022-11-20T05:30:06.350Z,46.35
2022-11-20T05:33:09.206Z,48.90
2022-11-20T05:36:13.006Z,47.45
2022-11-20T05:39:15.192Z,44.17
2022-11-20T05:42:32.390Z,41.10
2022-11-20T05:45:34.401Z,44.03
2022-11-20T05:48:37.722Z,44.75
2022-11-20T05:51:39.698Z,48.03
2022-11-20T05:54:41.679Z,47.38
2022-11-20T05:57:43.719Z,46.83
2022-11-20T06:00:45.716Z,55.20
2022-11-20T06:03:48.799Z,58.70
2022-11-20T06:06:50.890Z,57.53
2022-11-20T06:09:52.837Z,56.88
2022-11-20T06:12:54.868Z,49.80
2022-11-20T06:15:57.963Z,50.05
2022-11-20T06:19:00.103Z,53.53
2022-11-20T06:22:02.195Z,50.53
2022-11-20T06:25:04.386Z,48.58
2022-11-20T06:28:06.530Z,51.60
2022-11-20T06:31:11.346Z,55.15
2022-11-20T06:34:13.637Z,56.63
2022-11-20T06:37:15.736Z,54.63
2022-11-20T06:40:17.950Z,52.03
2022-11-20T06:43:20.013Z,57.00
2022-11-20T06:46:22.374Z,49.22
2022-11-20T06:52:26.982Z,57.95
2022-11-20T06:55:28.929Z,63.38
2022-11-20T06:58:33.233Z,59.55
2022-11-20T07:01:36.062Z,54.35
2022-11-20T07:04:38.093Z,69.53
2022-11-20T07:07:43.495Z,62.97
2022-11-20T07:10:45.673Z,65.35
2022-11-20T07:13:47.791Z,59.10
2022-11-20T07:16:50.015Z,56.22
2022-11-20T07:19:52.237Z,56.58
2022-11-20T07:22:55.939Z,69.55
2022-11-20T07:25:58.048Z,59.92
2022-11-20T07:29:00.110Z,55.88
2022-11-20T07:32:02.479Z,56.25
2022-11-20T07:35:04.813Z,58.40
2022-11-20T07:38:06.819Z,54.42
2022-11-20T07:41:08.860Z,52.15
2022-11-20T07:44:10.802Z,58.17
2022-11-20T07:47:12.832Z,57.50
2022-11-20T07:50:15.739Z,53.97
2022-11-20T07:53:21.760Z,54.90
2022-11-20T07:56:23.723Z,55.00
2022-11-20T07:59:25.780Z,54.08
2022-11-20T08:02:27.902Z,51.78
2022-11-20T08:05:29.916Z,57.80
2022-11-20T08:08:33.791Z,55.58
2022-11-20T08:11:54.954Z,60.55
2022-11-20T08:14:59.889Z,59.90
2022-11-20T08:21:38.155Z,61.90
2022-11-20T08:24:40.563Z,52.83
2022-11-20T08:27:42.520Z,47.85
2022-11-20T08:30:44.609Z,56.83
2022-11-20T08:33:46.596Z,54.25
2022-11-20T08:36:48.616Z,56.15
2022-11-20T08:39:50.604Z,53.13
2022-11-20T08:42:52.596Z,55.45
2022-11-20T08:45:57.078Z,60.22
2022-11-20T08:48:59.596Z,47.63
2022-11-20T08:52:01.687Z,55.17
2022-11-20T08:55:05.210Z,48.40
2022-11-20T08:58:07.899Z,55.05
2022-11-20T09:01:10.578Z,50.13
2022-11-20T09:04:14.585Z,50.80
2022-11-20T09:07:16.700Z,53.90
2022-11-20T09:10:25.809Z,50.47
2022-11-20T09:13:29.548Z,44.45
2022-11-20T09:16:31.582Z,49.33
2022-11-20T09:19:36.035Z,45.05
2022-11-20T09:22:41.826Z,47.15
2022-11-20T09:25:44.351Z,47.28
2022-11-20T09:28:46.721Z,46.72
2022-11-20T09:31:48.727Z,47.65
2022-11-20T09:34:50.763Z,41.17
2022-11-20T09:37:52.805Z,43.63
2022-11-20T09:41:03.991Z,43.50
2022-11-20T09:44:09.069Z,45.75
2022-11-20T09:47:39.030Z,46.45
2022-11-20T09:50:50.978Z,44.15
2022-11-20T09:54:13.886Z,40.88
2022-11-20T10:00:22.314Z,42.17
2022-11-20T10:03:55.427Z,43.45
2022-11-20T10:10:34.168Z,47.15
2022-11-20T10:13:56.669Z,49.42
2022-11-20T10:17:35.670Z,50.17
2022-11-20T10:21:11.788Z,52.30
2022-11-20T10:24:38.931Z,54.85
2022-11-20T10:27:43.749Z,44.03
2022-11-20T10:30:51.397Z,38.83
2022-11-20T10:34:11.598Z,38.22
2022-11-20T10:37:27.071Z,42.17
2022-11-20T10:40:38.196Z,37.25
2022-11-20T10:43:40.171Z,38.13
2022-11-20T10:46:45.294Z,41.47
2022-11-20T10:49:56.822Z,41.75
2022-11-20T10:53:19.828Z,45.35
2022-11-20T10:56:49.481Z,37.55
2022-11-20T11:00:06.622Z,35.97
2022-11-20T11:03:24.088Z,37.95
2022-11-20T11:06:35.539Z,36.53
2022-11-20T11:09:43.903Z,43.42
2022-11-20T11:12:49.382Z,39.47
2022-11-20T11:15:52.243Z,39.83
2022-11-20T11:19:12.714Z,38.10
2022-11-20T11:22:19.566Z,34.55
2022-11-20T11:25:34.618Z,33.15
2022-11-20T11:28:36.830Z,34.80
2022-11-20T11:31:39.190Z,39.03
2022-11-20T11:34:41.725Z,40.75
2022-11-20T11:37:43.999Z,42.72
2022-11-20T11:40:48.271Z,38.92
2022-11-20T11:44:14.867Z,39.08
2022-11-20T11:47:26.334Z,38.78
2022-11-20T11:50:30.618Z,40.90
2022-11-20T11:53:42.501Z,39.65
2022-11-20T11:56:46.013Z,36.60
2022-11-20T12:00:12.473Z,41.13
2022-11-20T12:03:28.201Z,38.45
2022-11-20T12:06:32.595Z,41.30
2022-11-20T12:09:49.160Z,40.00
2022-11-20T12:12:57.407Z,43.15
2022-11-20T12:15:59.898Z,45.85
2022-11-20T12:19:02.409Z,41.60
2022-11-20T12:22:13.817Z,45.40
2022-11-20T12:25:30.193Z,43.03
2022-11-20T12:29:19.719Z,43.30
2022-11-20T12:32:21.711Z,45.08
2022-11-20T12:35:54.373Z,43.10
2022-11-20T12:39:24.126Z,33.38
2022-11-20T12:43:24.631Z,39.08
2022-11-20T12:46:32.933Z,41.60
2022-11-20T12:49:35.347Z,42.45
2022-11-20T12:52:48.287Z,40.90
2022-11-20T12:56:12.509Z,42.33
2022-11-20T12:59:32.506Z,44.13
2022-11-20T13:03:02.733Z,44.67
2022-11-20T13:06:18.340Z,49.53
2022-11-20T13:09:23.608Z,38.85
2022-11-20T13:12:38.044Z,37.58
2022-11-20T13:15:55.454Z,38.35
2022-11-20T13:19:02.186Z,39.78
2022-11-20T13:22:04.440Z,36.78
2022-11-20T13:25:16.210Z,35.75
2022-11-20T13:28:18.851Z,37.95
2022-11-20T13:31:32.941Z,38.70
2022-11-20T13:34:37.646Z,43.35
2022-11-20T13:37:40.277Z,42.90
2022-11-20T13:44:25.110Z,39.38
2022-11-20T13:47:29.957Z,38.80
2022-11-20T13:50:51.958Z,39.00
2022-11-20T13:54:19.444Z,36.13
2022-11-20T13:57:51.968Z,37.78
2022-11-20T14:01:10.882Z,31.15
2022-11-20T14:04:19.734Z,38.92
2022-11-20T14:07:33.731Z,37.35
2022-11-20T14:10:36.437Z,34.20
2022-11-20T14:16:42.617Z,33.35
2022-11-20T14:19:48.075Z,36.53
2022-11-20T14:22:52.108Z,35.70
2022-11-20T14:25:54.959Z,37.63
2022-11-20T14:28:57.809Z,36.88
2022-11-20T14:32:00.715Z,34.55
2022-11-20T14:35:14.580Z,38.85
2022-11-20T14:38:19.958Z,39.22
2022-11-20T14:41:24.641Z,35.60
2022-11-20T14:44:35.433Z,36.83
2022-11-20T14:47:37.840Z,38.67
2022-11-20T14:50:41.062Z,32.53
2022-11-20T14:53:43.244Z,36.58
2022-11-20T14:57:05.008Z,31.30
2022-11-20T15:00:16.201Z,35.85
2022-11-20T15:03:19.384Z,33.85
2022-11-20T15:06:28.093Z,31.95
2022-11-20T15:09:30.635Z,35.40
2022-11-20T15:12:35.860Z,30.65
2022-11-20T15:15:55.736Z,38.05
2022-11-20T15:18:58.678Z,30.38
2022-11-20T15:22:01.634Z,33.10
2022-11-20T15:25:16.290Z,29.63
2022-11-20T15:28:30.825Z,33.38
2022-11-20T15:31:33.200Z,32.25
2022-11-20T15:34:35.946Z,28.20
2022-11-20T15:37:39.523Z,34.90
2022-11-20T15:40:42.371Z,30.00
2022-11-20T15:43:45.230Z,35.28
2022-11-20T15:46:47.849Z,31.05
2022-11-20T15:49:50.332Z,28.17
2022-11-20T15:52:53.884Z,32.22
2022-11-20T15:55:56.438Z,39.50
2022-11-20T16:02:00.904Z,34.20
2022-11-20T16:08:11.863Z,27.98
2022-11-20T16:11:16.641Z,32.78
2022-11-20T16:14:37.541Z,31.52
2022-11-20T16:17:46.678Z,38.10
2022-11-20T16:20:51.746Z,35.95
2022-11-20T16:23:54.248Z,36.42
2022-11-20T16:30:00.123Z,38.10
2022-11-20T16:33:04.241Z,38.95
2022-11-20T16:36:14.878Z,28.75
2022-11-20T16:39:23.061Z,25.50
2022-11-20T16:42:26.310Z,28.85
2022-11-20T16:45:33.610Z,31.05
2022-11-20T16:48:36.539Z,29.73
2022-11-20T16:51:39.256Z,30.35
2022-11-20T16:54:42.162Z,34.83
2022-11-20T16:57:45.713Z,32.13
2022-11-20T17:00:51.591Z,37.22
2022-11-20T17:04:03.953Z,30.55
2022-11-20T17:07:08.132Z,33.72
2022-11-20T17:10:11.346Z,32.53
2022-11-20T17:13:14.006Z,34.55
2022-11-20T17:16:22.692Z,30.75
2022-11-20T17:19:25.186Z,39.42
2022-11-20T17:25:36.518Z,31.95
2022-11-20T17:28:39.850Z,34.75
2022-11-20T17:31:43.530Z,33.30
2022-11-20T17:34:46.036Z,34.38
2022-11-20T17:40:51.573Z,30.00
2022-11-20T17:43:55.926Z,38.67
2022-11-20T17:46:59.330Z,52.80
2022-11-20T17:50:02.531Z,34.28
2022-11-20T17:53:05.927Z,33.75
2022-11-20T17:56:27.651Z,42.72
2022-11-20T17:59:30.150Z,42.78
2022-11-20T18:05:34.910Z,32.28
2022-11-20T18:11:41.677Z,38.53
2022-11-20T18:14:44.171Z,31.00
2022-11-20T18:20:54.061Z,35.15
2022-11-20T18:23:56.941Z,39.97
2022-11-20T18:26:59.994Z,41.42
2022-11-20T18:30:02.726Z,35.72
2022-11-20T18:33:06.590Z,35.47
2022-11-20T18:36:11.212Z,43.35
2022-11-20T18:39:15.340Z,37.00
2022-11-20T18:42:39.192Z,47.33
2022-11-20T18:45:41.766Z,41.35
2022-11-20T18:48:44.762Z,40.10
2022-11-20T18:51:49.657Z,54.33
2022-11-20T18:54:53.154Z,45.38
2022-11-20T18:57:56.001Z,44.28
2022-11-20T19:01:06.899Z,38.40
2022-11-20T19:04:15.495Z,38.65
2022-11-20T19:07:17.682Z,52.40
2022-11-20T19:10:20.402Z,54.22
2022-11-20T19:13:23.178Z,45.33
2022-11-20T19:16:27.077Z,47.63
2022-11-20T19:19:29.863Z,46.58
2022-11-20T19:22:32.299Z,64.55
2022-11-20T19:28:41.453Z,46.28
2022-11-20T19:31:44.221Z,46.50
2022-11-20T19:34:47.093Z,47.55
2022-11-20T19:37:50.283Z,43.40
2022-11-20T19:40:53.016Z,48.15
2022-11-20T19:44:05.398Z,54.00
2022-11-20T19:47:13.996Z,54.35
2022-11-20T19:50:18.538Z,68.15
2022-11-20T19:53:21.797Z,62.53
2022-11-20T19:56:25.464Z,48.78
2022-11-20T19:59:28.745Z,41.55
2022-11-20T20:02:31.160Z,48.22
2022-11-20T20:05:35.361Z,43.33
2022-11-20T20:08:39.400Z,44.92
2022-11-20T20:11:46.398Z,56.75
2022-11-20T20:14:48.509Z,52.60
2022-11-20T20:17:54.452Z,50.17
2022-11-20T20:21:00.952Z,52.08
2022-11-20T20:24:06.874Z,55.90
2022-11-20T20:27:10.029Z,44.25
2022-11-20T20:30:13.833Z,54.33
2022-11-20T20:33:16.366Z,46.40
2022-11-20T20:36:20.343Z,50.35
2022-11-20T20:39:24.802Z,43.70
2022-11-20T20:42:27.522Z,48.25
2022-11-20T20:45:31.128Z,41.53
2022-11-20T20:48:33.740Z,47.55
2022-11-20T20:54:43.152Z,46.15
2022-11-20T20:57:45.993Z,43.92
2022-11-20T21:00:48.495Z,36.95
2022-11-20T21:03:51.035Z,44.58
2022-11-20T21:09:55.840Z,45.83
2022-11-20T21:12:58.006Z,50.33
2022-11-20T21:16:00.672Z,46.70
2022-11-20T21:19:03.612Z,47.15
2022-11-20T21:22:06.036Z,43.15
2022-11-20T21:28:14.378Z,51.70
2022-11-20T21:31:28.062Z,45.05
2022-11-20T21:34:33.210Z,50.65
2022-11-20T21:37:40.724Z,52.92
2022-11-20T21:40:43.026Z,52.70
2022-11-20T21:43:45.642Z,96.82
2022-11-20T21:46:47.805Z,56.00
2022-11-20T21:49:50.023Z,68.40
2022-11-20T21:52:52.897Z,97.93
2022-11-20T21:55:55.853Z,134.45
2022-11-20T21:58:58.963Z,72.82
2022-11-20T22:02:01.009Z,53.63
2022-11-20T22:05:03.280Z,57.13
2022-11-20T22:08:05.798Z,60.95
2022-11-20T22:11:10.864Z,85.72
2022-11-20T22:14:21.928Z,116.70
2022-11-20T22:17:44.255Z,121.22
2022-11-20T22:20:46.327Z,101.53
2022-11-20T22:23:48.785Z,105.55
2022-11-20T22:26:51.052Z,109.65
2022-11-20T22:29:53.058Z,186.50
2022-11-20T22:32:56.529Z,147.32
2022-11-20T22:36:03.863Z,115.93
2022-11-20T22:39:06.089Z,138.07
2022-11-20T22:42:08.278Z,148.55
2022-11-20T22:45:11.052Z,101.90
2022-11-20T22:48:14.542Z,131.98
2022-11-20T22:51:17.557Z,107.63
2022-11-20T22:54:19.576Z,86.15
2022-11-20T22:57:21.668Z,139.30
2022-11-20T23:00:23.978Z,115.03
2022-11-20T23:03:26.054Z,115.38
2022-11-20T23:06:29.342Z,105.55
2022-11-20T23:09:31.939Z,70.90
2022-11-20T23:12:33.977Z,76.88
2022-11-20T23:15:35.971Z,130.65
2022-11-20T23:18:38.404Z,119.50
2022-11-20T23:21:42.470Z,185.02
2022-11-20T23:24:44.730Z,157.18
2022-11-20T23:27:46.777Z,188.88
2022-11-20T23:30:49.272Z,154.75
2022-11-20T23:33:51.708Z,154.98
2022-11-20T23:36:53.757Z,183.77
2022-11-20T23:39:55.967Z,147.23
2022-11-20T23:43:16.346Z,136.82
2022-11-20T23:46:18.492Z,205.55
2022-11-20T23:49:20.612Z,150.15
2022-11-20T23:52:22.757Z,99.72
2022-11-20T23:55:24.741Z,132.32
2022-11-20T23:58:32.787Z,104.50
